15°C Temp
13°C Dewpoint
% Humidity
Temperature
10 KM/H
6 MPH
5 KTS
190°
Due South

Wind Speed
Misty
Conditions
Pressure 1014.92 (hPa) - 29.97 (in)
Visibility 2.5 (mi) - 4.0 (km)

Current Conditions
LIME
Location 30(km)
Metar :LIME 241420Z 19005KT 150V230 4000 BR BKN010 15/13 Q1015 NOSIG
Sat 24th October 15:20 pm

Airport
  Metar Aviation API Data Provided by https://www.checkwx.com/ PHP scripts by weather34.com ©2020